WetterOnline ( http://www.wetteronline.de )

Wetter aktuell Höxter

Aktuelles Wetter: Lügde-Paenbruch (260m)

6-stündlich | Neueste Meldungen
Ortszeit Temperatur Wetter
So, 19.08. 2:00 12.5° C wolkig
Sa, 18.08. 20:00 22.2° C leicht bewölkt
Sa, 18.08. 14:00 22.6° C fast wolkenlos
Sa, 18.08. 8:00 15.8° C wolkenlos
Sa, 18.08. 2:00 12.6° C wolkenlos
Fr, 17.08. 20:00 20.4° C bewölkt
Fr, 17.08. 14:00 24.1° C leicht bewölkt
Fr, 17.08. 8:00 16.8° C wolkig
Ortszeit Temperatur Wetter
So, 19.08. 7:30 13.8° C bedeckt
So, 19.08. 7:20 13.8° C bedeckt
So, 19.08. 7:10 13.5° C bedeckt
So, 19.08. 7:00 12.1° C bedeckt
So, 19.08. 6:50 12.1° C bedeckt
So, 19.08. 6:40 11.7° C wolkig
So, 19.08. 6:30 11.7° C wolkig
So, 19.08. 6:00 11.3° C bedeckt
So, 19.08. 5:30 12.5° C bedeckt
So, 19.08. 5:00 11.7° C bedeckt
So, 19.08. 4:30 12.5° C leicht bewölkt
Ortszeit Relative Feuchte Sichtweite
So, 19.08. 2:00 78% 35 km
Sa, 18.08. 20:00 41% 70 km
Sa, 18.08. 14:00 38% 25 km
Sa, 18.08. 8:00 85% 12 km
Sa, 18.08. 2:00 92% 20 km
Fr, 17.08. 20:00 66% 70 km
Fr, 17.08. 14:00 47% 25 km
Fr, 17.08. 8:00 80% 13 km
Ortszeit Relative Feuchte Sichtweite
So, 19.08. 7:30 84% 12 km
So, 19.08. 7:20 84% -
So, 19.08. 7:10 85% -
So, 19.08. 7:00 91% 9 km
So, 19.08. 6:50 91% -
So, 19.08. 6:40 91% -
So, 19.08. 6:30 93% 9 km
So, 19.08. 6:00 90% 9 km
So, 19.08. 5:30 88% 13 km
So, 19.08. 5:00 88% 15 km
So, 19.08. 4:30 87% 18 km
Ortszeit Niederschlagsmenge Niederschlagsart
So, 19.08. 2:00 0.0 l/m2 in 6 Std. -
Sa, 18.08. 20:00 0.0 l/m2 in 12 Std. -
Sa, 18.08. 14:00 0.0 l/m2 in 6 Std. -
Sa, 18.08. 8:00 0.0 l/m2 in 12 Std. -
Sa, 18.08. 2:00 0.0 l/m2 in 6 Std. -
Fr, 17.08. 20:00 0.1 l/m2 in 12 Std. -
Fr, 17.08. 14:00 0.1 l/m2 in 6 Std. Regen
Fr, 17.08. 8:00 0.0 l/m2 in 12 Std. -
Ortszeit Niederschlagsmenge Niederschlagsart
So, 19.08. 7:30 0.0 l/m2 in 1 Std. -
So, 19.08. 7:20 keine Meldung -
So, 19.08. 7:10 keine Meldung -
So, 19.08. 7:00 0.0 l/m2 in 1 Std. -
So, 19.08. 6:50 keine Meldung -
So, 19.08. 6:40 keine Meldung -
So, 19.08. 6:30 0.0 l/m2 in 1 Std. -
So, 19.08. 6:00 0.0 l/m2 in 1 Std. -
So, 19.08. 5:30 0.0 l/m2 in 1 Std. -
So, 19.08. 5:00 0.0 l/m2 in 1 Std. -
So, 19.08. 4:30 0.0 l/m2 in 1 Std. -
Ortszeit Stärke Spitze Richtung
km/h Bft. km/h Grad Sektor
So, 19.08. 2:00 6 1 13 170° S
Sa, 18.08. 20:00 9 2 31 300° NW
Sa, 18.08. 14:00 15 3 30 240° SW
Sa, 18.08. 8:00 4 1 7 160° S
Sa, 18.08. 2:00 0 0 22 - -
Fr, 17.08. 20:00 14 3 29 340° N
Fr, 17.08. 14:00 11 2 29 340° N
Fr, 17.08. 8:00 7 2 18 10° N
Ortszeit Stärke Spitze Richtung
km/h Bft. km/h Grad Sektor
So, 19.08. 7:30 4 1 4 140° SO
So, 19.08. 7:20 4 1 - 140° SO
So, 19.08. 7:10 4 1 - 150° SO
So, 19.08. 7:00 7 2 7 140° SO
So, 19.08. 6:50 7 2 - 140° SO
So, 19.08. 6:40 7 2 - 140° SO
So, 19.08. 6:30 4 1 7 160° S
So, 19.08. 6:00 4 1 4 150° SO
So, 19.08. 5:30 4 1 4 210° SW
So, 19.08. 5:00 4 1 7 150° SO
So, 19.08. 4:30 4 1 7 150° SO
Ortszeit Untergrenze Bedeckung Gattung
total tief tief mittel hoch
So, 19.08. 2:00 10500 m 8/8 0/8 - - -
Sa, 18.08. 20:00 10500 m 7/8 0/8 - - -
Sa, 18.08. 14:00 1500 m 1/8 1/8 - - -
Sa, 18.08. 8:00 - 0/8 0/8 - - -
Sa, 18.08. 2:00 10500 m 0/8 0/8 - - -
Fr, 17.08. 20:00 930 m 7/8 7/8 - - -
Fr, 17.08. 14:00 5400 m 3/8 3/8 - - -
Fr, 17.08. 8:00 9000 m 7/8 0/8 - - -
Ortszeit Bedeckungsgrad in Achtel und Wolkenuntergrenze
So, 19.08. 7:30 9 9 9
So, 19.08. 7:20 9 9 9
So, 19.08. 7:10 9 9 9
So, 19.08. 7:00 9 9 9
So, 19.08. 6:50 9 9 9
So, 19.08. 6:40 8(10500m) 8(10500m)
So, 19.08. 6:30 7(10500m) 7(10500m)
So, 19.08. 6:00 9 9 9
So, 19.08. 5:30 9 9 9
So, 19.08. 5:00 8(10500m) 8(12000m) 9
So, 19.08. 4:30 1(2400m) 6(10500m)
Ortszeit Luftdruck NN (hPa) Tendenz (hPa in 3 Std.)
So, 19.08. 2:00 1023 + 0,5
Sa, 18.08. 20:00 1021 + 0,1
Sa, 18.08. 14:00 1022 - 0,2
Sa, 18.08. 8:00 1022 + 0,5
Sa, 18.08. 2:00 1021 + 0,7
Fr, 17.08. 20:00 1018 + 0,5
Fr, 17.08. 14:00 1016 - 0,6
Fr, 17.08. 8:00 1016 + 1,2
Ortszeit Luftdruck NN (hPa) Tendenz (hPa in 3 Std.)
So, 19.08. 7:30 1022 - 0,3
So, 19.08. 7:20 1022 keine Meldung
So, 19.08. 7:10 1022 keine Meldung
So, 19.08. 7:00 1023 - 0,4
So, 19.08. 6:50 1023 keine Meldung
So, 19.08. 6:40 1023 keine Meldung
So, 19.08. 6:30 1023 - 0,4
So, 19.08. 6:00 1023 - 0,3
So, 19.08. 5:30 1023 - 0,3
So, 19.08. 5:00 1023 - 0,3
So, 19.08. 4:30 1023 - 0,2
Ortszeit Schneehöhe (cm)
So, 19.08. 2:00 -
Sa, 18.08. 20:00 -
Sa, 18.08. 14:00 -
Sa, 18.08. 8:00 -
Sa, 18.08. 2:00 -
Fr, 17.08. 20:00 -
Fr, 17.08. 14:00 -
Fr, 17.08. 8:00 -
Ortszeit Schneehöhe (cm)
So, 19.08. 7:30 -
So, 19.08. 7:20 -
So, 19.08. 7:10 -
So, 19.08. 7:00 -
So, 19.08. 6:50 -
So, 19.08. 6:40 -
So, 19.08. 6:30 -
So, 19.08. 6:00 -
So, 19.08. 5:30 -
So, 19.08. 5:00 -
So, 19.08. 4:30 -
Link zu dieser Seite / Seite empfehlen

Das Wetter in ...